»·PEaware :: N716TH KBFL-KMHV

N716TH :: KBFL-KMHV

FLIGHT INFORMATION

Flight Status: Arrived
Operator: Privately registered:
United States
More flights under this callsign
Pilot: Danny R. (17997)
Aircraft: CESSNA 172 SKYHAWK
(C172)
More flights by this aircraft type
Origin: KBFL Meadows
United States
Destination: KMHV Mojave
United States
More flights between these airports :: More routes between these airports
Route: KBFL KMHV
File this flight plan on PilotEdge
Remarks: CAT-06
Altitude:
(Current/Filed)
5,500ft
Speed:
(Current/Filed)
100kts
Departed: 06-Feb-18 01:19 PM
Arrived: 06-Feb-18 02:04 PM
Distance/Time
Traveled:
50nm/0:45
Distance/Time
To Go:
Arrived

Flight Plot

Page will automatically refresh every two minutes.


Map Options




Map Legend


Flown Route
Filed Route
Departure Airport
Arrival Airport
Navaid (VOR, NDB)
Fix

Horizontal Profiles

Position Reports

Time Latitude Longitude Heading Altitude Ground
Speed
06-Feb-18 13:00 35.429367 -119.046106 226 510ft 0kts
06-Feb-18 13:01 35.429367 -119.046106 226 510ft 0kts
06-Feb-18 13:02 35.429367 -119.046106 226 510ft 0kts
06-Feb-18 13:03 35.429367 -119.046106 226 510ft 0kts
06-Feb-18 13:04 35.429367 -119.046106 226 510ft 0kts
06-Feb-18 13:05 35.429367 -119.046106 226 510ft 0kts
06-Feb-18 13:06 35.429367 -119.046106 226 510ft 0kts
06-Feb-18 13:07 35.429367 -119.046106 226 510ft 0kts
06-Feb-18 13:08 35.429367 -119.046106 226 510ft 0kts
06-Feb-18 13:09 35.429367 -119.046106 226 510ft 0kts
06-Feb-18 13:10 35.429367 -119.046106 226 510ft 0kts
06-Feb-18 13:11 35.429367 -119.046106 226 510ft 0kts
06-Feb-18 13:12 35.429367 -119.046106 226 510ft 0kts
06-Feb-18 13:13 35.429367 -119.046106 226 510ft 0kts
06-Feb-18 13:14 35.429367 -119.046106 226 510ft 0kts
06-Feb-18 13:15 35.429367 -119.046106 226 510ft 0kts
06-Feb-18 13:16 35.429367 -119.046106 226 510ft 0kts
06-Feb-18 13:17 35.429367 -119.046106 226 510ft 0kts
06-Feb-18 13:18 35.429367 -119.046106 226 510ft 0kts
06-Feb-18 13:18 35.429367 -119.046106 226 510ft 0kts
06-Feb-18 13:20 35.427647 -119.046470 132 510ft 13kts
06-Feb-18 13:21 35.425634 -119.044382 269 510ft 0kts
06-Feb-18 13:22 35.425634 -119.044382 269 510ft 0kts
06-Feb-18 13:23 35.425670 -119.044475 311 510ft 3kts
06-Feb-18 13:23 35.425737 -119.044738 229 510ft 0kts
06-Feb-18 13:24 35.425605 -119.044955 240 510ft 9kts
06-Feb-18 13:26 35.436794 -119.059438 312 918ft 78kts
06-Feb-18 13:27 35.447986 -119.082831 233 1481ft 92kts
06-Feb-18 13:27 35.427748 -119.082805 137 1415ft 118kts
06-Feb-18 13:29 35.403252 -119.053464 136 1398ft 101kts
06-Feb-18 13:29 35.388610 -119.031632 122 1400ft 105kts
06-Feb-18 13:30 35.376205 -119.000389 105 1934ft 98kts
06-Feb-18 13:31 35.377208 -118.970853 84 2732ft 82kts
06-Feb-18 13:32 35.378691 -118.943304 85 3390ft 83kts
06-Feb-18 13:33 35.380158 -118.914520 85 4001ft 85kts
06-Feb-18 13:34 35.381432 -118.889319 85 4581ft 80kts
06-Feb-18 13:35 35.382808 -118.861928 85 5207ft 80kts
06-Feb-18 13:36 35.379934 -118.830252 108 5476ft 105kts
06-Feb-18 13:37 35.367706 -118.795095 119 5566ft 117kts
06-Feb-18 13:38 35.355658 -118.763778 122 6150ft 74kts
06-Feb-18 13:39 35.346814 -118.741141 118 6650ft 78kts
06-Feb-18 13:40 35.335193 -118.718628 131 7108ft 79kts
06-Feb-18 13:41 35.322818 -118.695930 122 7518ft 81kts
06-Feb-18 13:42 35.312140 -118.671613 119 7529ft 84kts
06-Feb-18 13:43 35.301325 -118.645603 118 7534ft 88kts
06-Feb-18 13:44 35.290182 -118.618531 119 7534ft 89kts
06-Feb-18 13:45 35.278999 -118.591319 118 7528ft 90kts
06-Feb-18 13:46 35.267371 -118.563067 118 7486ft 92kts
06-Feb-18 13:47 35.255921 -118.535241 119 7481ft 91kts
06-Feb-18 13:48 35.239830 -118.512742 144 7484ft 89kts
06-Feb-18 13:49 35.220375 -118.494018 131 7479ft 89kts
06-Feb-18 13:50 35.205997 -118.469050 121 7477ft 90kts
06-Feb-18 13:51 35.193838 -118.442271 120 7474ft 90kts
06-Feb-18 13:52 35.177373 -118.419634 128 7400ft 92kts
06-Feb-18 13:53 35.164905 -118.396568 121 6815ft 76kts
06-Feb-18 13:54 35.150879 -118.375455 141 6215ft 89kts
06-Feb-18 13:55 35.129469 -118.358357 141 5627ft 96kts
06-Feb-18 13:56 35.111170 -118.339452 116 5472ft 80kts
06-Feb-18 13:57 35.103046 -118.313299 106 5493ft 86kts
06-Feb-18 13:58 35.100402 -118.284526 73 5498ft 88kts
06-Feb-18 13:59 35.107940 -118.254701 73 5500ft 94kts
06-Feb-18 14:00 35.116427 -118.226268 62 5496ft 81kts
06-Feb-18 14:01 35.126819 -118.203672 62 5492ft 73kts
06-Feb-18 14:02 35.128402 -118.180039 100 5256ft 65kts
06-Feb-18 14:03 35.126522 -118.158903 92 4463ft 59kts
06-Feb-18 14:04 35.125573 -118.139275 89 3937ft 56kts
06-Feb-18 14:05 35.124647 -118.117829 90 3935ft 66kts
06-Feb-18 14:06 35.111228 -118.109976 184 3827ft 72kts
06-Feb-18 14:07 35.091410 -118.114013 181 3792ft 73kts
06-Feb-18 14:08 35.071534 -118.116870 178 3623ft 71kts
06-Feb-18 14:09 35.059165 -118.131054 272 3065ft 68kts
06-Feb-18 14:10 35.059173 -118.149035 274 2795ft 21kts
06-Feb-18 14:11 35.058570 -118.150036 137 2795ft 0kts
06-Feb-18 14:12 35.057598 -118.150978 270 2795ft 14kts
06-Feb-18 14:13 35.057613 -118.155963 270 2795ft 19kts
06-Feb-18 14:14 35.057035 -118.157757 274 2795ft 0kts
06-Feb-18 14:15 35.057035 -118.157757 274 2795ft 0kts
06-Feb-18 14:16 35.057035 -118.157757 274 2795ft 0kts

Navigation Log

Ident Type
1. KBFL Airport
2. KMHV Airport